createdAt,value
2023-04-02T00:01:02.274Z,98895.28
2023-04-02T00:03:44.669Z,98898.72
2023-04-02T00:06:50.158Z,98897.06
2023-04-02T00:09:30.896Z,98908.09
2023-04-02T00:12:00.507Z,98912.28
2023-04-02T00:14:37.009Z,98913.97
2023-04-02T00:17:15.092Z,98910.59
2023-04-02T00:19:58.833Z,98920.75
2023-04-02T00:22:35.325Z,98924.19
2023-04-02T00:25:14.015Z,98926.00
2023-04-02T00:27:42.362Z,98933.66
2023-04-02T00:30:16.596Z,98948.09
2023-04-02T00:32:47.126Z,98948.13
2023-04-02T00:35:29.234Z,98954.13
2023-04-02T00:37:57.930Z,98956.72
2023-04-02T00:40:32.452Z,98954.19
2023-04-02T00:43:06.527Z,98952.56
2023-04-02T00:45:38.866Z,98966.06
2023-04-02T00:49:12.382Z,98967.81
2023-04-02T00:51:49.746Z,98976.44
2023-04-02T00:54:21.995Z,98968.91
2023-04-02T00:56:55.843Z,98972.34
2023-04-02T00:59:54.865Z,98975.72
2023-04-02T01:02:30.015Z,98975.81
2023-04-02T01:05:03.824Z,98976.69
2023-04-02T01:08:18.153Z,98990.16
2023-04-02T01:11:18.917Z,98988.50
2023-04-02T01:14:09.754Z,98987.69
2023-04-02T01:17:39.392Z,98993.63
2023-04-02T01:20:47.649Z,99008.91
2023-04-02T01:24:08.982Z,99008.97
2023-04-02T01:27:04.440Z,99012.41
2023-04-02T01:29:39.343Z,99015.81
2023-04-02T01:32:19.147Z,99011.63
2023-04-02T01:34:48.943Z,99026.75
2023-04-02T01:37:23.866Z,99030.97
2023-04-02T01:40:10.177Z,99040.19
2023-04-02T01:43:13.758Z,99051.97
2023-04-02T01:45:41.670Z,99052.84
2023-04-02T01:48:21.121Z,99063.75
2023-04-02T01:50:55.151Z,99063.75
2023-04-02T01:53:44.305Z,99072.22
2023-04-02T01:56:11.743Z,99070.59
2023-04-02T01:58:39.305Z,99079.88
2023-04-02T02:01:15.747Z,99078.25
2023-04-02T02:03:45.371Z,99092.59
2023-04-02T02:06:19.481Z,99101.06
2023-04-02T02:09:42.068Z,99100.25
2023-04-02T02:12:15.006Z,99107.03
2023-04-02T02:14:55.169Z,99113.81
2023-04-02T02:17:31.356Z,99108.75
2023-04-02T02:20:02.575Z,99116.31
2023-04-02T02:22:40.797Z,99118.88
2023-04-02T02:25:17.869Z,99131.50
2023-04-02T02:27:56.152Z,99129.84
2023-04-02T02:30:42.577Z,99138.31
2023-04-02T02:33:39.340Z,99145.91
2023-04-02T02:36:24.994Z,99141.72
2023-04-02T02:39:22.903Z,99153.53
2023-04-02T02:42:02.856Z,99164.50
2023-04-02T02:44:52.160Z,99160.34
2023-04-02T02:47:27.136Z,99166.22
2023-04-02T02:50:00.858Z,99174.63
2023-04-02T02:52:39.351Z,99177.16
2023-04-02T02:55:13.740Z,99173.81
2023-04-02T02:58:09.175Z,99186.47
2023-04-02T03:00:39.472Z,99186.47
2023-04-02T03:03:15.054Z,99194.94
2023-04-02T03:06:14.144Z,99205.03
2023-04-02T03:09:35.278Z,99211.78
2023-04-02T03:12:26.606Z,99213.47
2023-04-02T03:15:43.837Z,99223.59
2023-04-02T03:18:39.719Z,99234.56
2023-04-02T03:21:31.779Z,99238.75
2023-04-02T03:24:23.269Z,99242.13
2023-04-02T03:27:05.583Z,99242.13
2023-04-02T03:29:57.882Z,99244.63
2023-04-02T03:32:36.236Z,99256.44
2023-04-02T03:35:42.097Z,99266.53
2023-04-02T03:38:37.089Z,99272.41
2023-04-02T03:41:12.221Z,99273.28
2023-04-02T03:43:54.592Z,99280.84
2023-04-02T03:46:42.574Z,99290.13
2023-04-02T03:50:05.227Z,99290.09
2023-04-02T03:52:37.809Z,99299.41
2023-04-02T03:55:25.588Z,99312.03
2023-04-02T03:58:15.369Z,99315.41
2023-04-02T04:01:59.918Z,99317.94
2023-04-02T04:04:42.570Z,99333.06
2023-04-02T04:07:50.697Z,99339.81
2023-04-02T04:10:28.712Z,99344.88
2023-04-02T04:13:23.630Z,99344.03
2023-04-02T04:16:22.976Z,99350.75
2023-04-02T04:19:19.926Z,99368.44
2023-04-02T04:21:47.993Z,99370.97
2023-04-02T04:24:25.298Z,99372.63
2023-04-02T04:27:13.332Z,99388.63
2023-04-02T04:30:06.365Z,99386.13
2023-04-02T04:32:58.725Z,99386.94
2023-04-02T04:35:56.583Z,99396.19
2023-04-02T04:38:44.368Z,99400.41
2023-04-02T04:41:19.095Z,99400.41
2023-04-02T04:44:18.042Z,99413.88
2023-04-02T04:47:19.562Z,99419.75
2023-04-02T04:50:19.702Z,99422.28
2023-04-02T04:52:48.353Z,99434.00
2023-04-02T04:56:03.464Z,99430.63
2023-04-02T04:59:03.896Z,99434.81
2023-04-02T05:02:05.438Z,99446.59
2023-04-02T05:04:41.917Z,99450.78
2023-04-02T05:08:01.355Z,99456.66
2023-04-02T05:11:07.599Z,99465.03
2023-04-02T05:13:52.543Z,99476.81
2023-04-02T05:16:45.094Z,99476.78
2023-04-02T05:22:44.148Z,99485.19
2023-04-02T05:25:23.788Z,99497.00
2023-04-02T05:28:19.923Z,99502.88
2023-04-02T05:31:09.332Z,99512.13
2023-04-02T05:33:38.151Z,99518.00
2023-04-02T05:36:09.341Z,99521.41
2023-04-02T05:38:44.984Z,99525.56
2023-04-02T05:41:47.794Z,99539.06
2023-04-02T05:44:38.530Z,99534.00
2023-04-02T05:47:27.849Z,99538.19
2023-04-02T05:50:24.985Z,99551.66
2023-04-02T05:53:19.714Z,99555.84
2023-04-02T05:56:08.383Z,99569.28
2023-04-02T05:58:51.408Z,99569.28
2023-04-02T06:01:41.306Z,99572.63
2023-04-02T06:04:16.290Z,99584.38
2023-04-02T06:06:53.130Z,99582.72
2023-04-02T06:09:39.512Z,99594.47
2023-04-02T06:12:29.122Z,99598.63
2023-04-02T06:14:56.934Z,99595.28
2023-04-02T06:17:24.720Z,99608.72
2023-04-02T06:19:58.464Z,99615.41
2023-04-02T06:22:36.944Z,99613.72
2023-04-02T06:25:23.113Z,99625.47
2023-04-02T06:27:59.136Z,99631.31
2023-04-02T06:30:34.214Z,99638.03
2023-04-02T06:33:01.643Z,99647.22
2023-04-02T06:35:34.936Z,99647.22
2023-04-02T06:38:07.286Z,99651.38
2023-04-02T06:40:47.180Z,99654.72
2023-04-02T06:43:33.708Z,99660.56
2023-04-02T06:46:12.095Z,99660.56
2023-04-02T06:48:43.885Z,99672.31
2023-04-02T06:51:21.496Z,99679.03
2023-04-02T06:53:52.025Z,99684.88
2023-04-02T06:56:49.826Z,99703.34
2023-04-02T06:59:19.131Z,99707.50
2023-04-02T07:01:58.148Z,99710.84
2023-04-02T07:04:26.458Z,99720.09
2023-04-02T07:06:55.161Z,99727.69
2023-04-02T07:09:22.786Z,99732.78
2023-04-02T07:11:49.984Z,99738.72
2023-04-02T07:14:17.123Z,99741.25
2023-04-02T07:16:44.952Z,99748.81
2023-04-02T07:19:25.921Z,99752.16
2023-04-02T07:21:53.063Z,99760.56
2023-04-02T07:24:20.103Z,99754.66
2023-04-02T07:26:48.387Z,99767.28
2023-04-02T07:29:19.924Z,99773.16
2023-04-02T07:31:50.862Z,99776.47
2023-04-02T07:34:21.305Z,99778.19
2023-04-02T07:36:51.769Z,99778.16
2023-04-02T07:39:19.661Z,99795.00
2023-04-02T07:41:59.999Z,99792.41
2023-04-02T07:44:31.397Z,99794.94
2023-04-02T07:47:00.807Z,99799.97
2023-04-02T07:49:28.421Z,99803.38
2023-04-02T07:51:55.923Z,99800.88
2023-04-02T07:54:23.314Z,99817.69
2023-04-02T07:56:50.935Z,99815.09
2023-04-02T07:59:19.157Z,99821.03
2023-04-02T08:01:46.842Z,99831.94
2023-04-02T08:04:21.971Z,99833.66
2023-04-02T08:06:51.125Z,99835.34
2023-04-02T08:09:18.493Z,99836.16
2023-04-02T08:11:46.917Z,99844.59
2023-04-02T08:14:15.210Z,99849.66
2023-04-02T08:16:53.991Z,99855.53
2023-04-02T08:19:22.351Z,99868.13
2023-04-02T08:21:52.113Z,99868.94
2023-04-02T08:24:20.151Z,99874.78
2023-04-02T08:26:50.385Z,99889.91
2023-04-02T08:29:20.457Z,99888.22
2023-04-02T08:31:48.110Z,99892.41
2023-04-02T08:34:15.631Z,99897.44
2023-04-02T08:36:45.707Z,99901.63
2023-04-02T08:39:14.905Z,99906.66
2023-04-02T08:42:01.707Z,99905.84
2023-04-02T08:47:51.392Z,99921.78
2023-04-02T08:50:51.921Z,99926.81
2023-04-02T08:53:31.371Z,99927.66
2023-04-02T08:56:24.222Z,99931.03
2023-04-02T08:58:56.645Z,99936.91
2023-04-02T09:01:47.110Z,99939.44
2023-04-02T09:04:19.050Z,99949.59
2023-04-02T09:07:00.920Z,99955.47
2023-04-02T09:09:28.782Z,99956.34
2023-04-02T09:12:01.443Z,99967.28
2023-04-02T09:15:06.151Z,99963.06
2023-04-02T09:17:42.630Z,99964.72
2023-04-02T09:20:28.633Z,99974.81
2023-04-02T09:22:57.519Z,99974.00
2023-04-02T09:25:32.562Z,99984.97
2023-04-02T09:28:04.521Z,99990.00
2023-04-02T09:31:07.254Z,99990.88
2023-04-02T09:33:49.186Z,99995.03
2023-04-02T09:36:40.125Z,99999.25
2023-04-02T09:39:26.917Z,100009.31
2023-04-02T09:42:04.945Z,100007.63
2023-04-02T09:44:34.283Z,100018.59
2023-04-02T09:47:23.522Z,100023.66
2023-04-02T09:49:53.041Z,100028.72
2023-04-02T09:52:31.101Z,100030.41
2023-04-02T09:55:16.400Z,100044.75
2023-04-02T09:57:45.333Z,100042.25
2023-04-02T10:00:32.122Z,100053.25
2023-04-02T10:03:05.737Z,100055.88
2023-04-02T10:08:28.414Z,100059.31
2023-04-02T10:11:04.081Z,100066.03
2023-04-02T10:13:53.077Z,100069.44
2023-04-02T10:16:27.303Z,100084.59
2023-04-02T10:19:07.160Z,100082.16
2023-04-02T10:21:38.525Z,100087.28
2023-04-02T10:24:17.214Z,100096.59
2023-04-02T10:27:18.058Z,100100.78
2023-04-02T10:30:05.765Z,100110.03
2023-04-02T10:32:40.775Z,100119.34
2023-04-02T10:35:33.239Z,100118.56
2023-04-02T10:38:26.619Z,100112.72
2023-04-02T10:41:35.121Z,100124.53
2023-04-02T10:44:20.198Z,100110.28
2023-04-02T10:47:22.621Z,100125.47
2023-04-02T10:50:32.411Z,100128.88
2023-04-02T10:53:24.278Z,100133.91
2023-04-02T10:56:04.712Z,100144.00
2023-04-02T10:58:37.742Z,100145.72
2023-04-02T11:01:16.898Z,100139.00
2023-04-02T11:03:54.813Z,100138.19
2023-04-02T11:07:03.498Z,100145.06
2023-04-02T11:09:45.335Z,100144.25
2023-04-02T11:12:25.076Z,100149.44
2023-04-02T11:14:55.473Z,100153.72
2023-04-02T11:17:23.174Z,100155.47
2023-04-02T11:19:50.075Z,100158.06
2023-04-02T11:22:22.778Z,100160.63
2023-04-02T11:24:54.437Z,100164.94
2023-04-02T11:27:30.562Z,100166.66
2023-04-02T11:30:15.859Z,100173.44
2023-04-02T11:32:47.271Z,100174.25
2023-04-02T11:35:31.502Z,100177.59
2023-04-02T11:38:21.143Z,100184.34
2023-04-02T11:40:51.283Z,100193.56
2023-04-02T11:43:38.211Z,100201.06
2023-04-02T11:46:16.949Z,100196.00
2023-04-02T11:48:44.088Z,100206.97
2023-04-02T11:51:23.290Z,100207.00
2023-04-02T11:53:58.398Z,100221.41
2023-04-02T11:56:45.318Z,100216.38
2023-04-02T11:59:21.311Z,100213.84
2023-04-02T12:02:13.056Z,100216.41
2023-04-02T12:05:10.194Z,100225.69
2023-04-02T12:08:50.607Z,100235.81
2023-04-02T12:11:39.086Z,100236.56
2023-04-02T12:14:48.332Z,100239.97
2023-04-02T12:17:27.997Z,100235.78
2023-04-02T12:19:58.327Z,100228.22
2023-04-02T12:22:32.004Z,100230.03
2023-04-02T12:25:22.956Z,100243.59
2023-04-02T12:28:22.297Z,100241.09
2023-04-02T12:31:02.050Z,100251.28
2023-04-02T12:33:33.876Z,100245.44
2023-04-02T12:36:02.759Z,100248.88
2023-04-02T12:38:43.635Z,100250.63
2023-04-02T12:41:35.846Z,100257.50
2023-04-02T12:44:11.437Z,100255.88
2023-04-02T12:46:39.987Z,100258.47
2023-04-02T12:49:34.137Z,100261.03
2023-04-02T12:52:28.730Z,100266.09
2023-04-02T12:55:03.238Z,100275.41
2023-04-02T12:57:29.959Z,100274.59
2023-04-02T13:00:00.819Z,100276.31
2023-04-02T13:02:31.751Z,100278.00
2023-04-02T13:05:02.255Z,100289.84
2023-04-02T13:07:32.646Z,100288.16
2023-04-02T13:10:23.222Z,100295.78
2023-04-02T13:13:00.429Z,100287.34
2023-04-02T13:15:34.305Z,100287.34
2023-04-02T13:18:12.765Z,100298.31
2023-04-02T13:20:41.888Z,100292.41
2023-04-02T13:23:30.574Z,100291.56
2023-04-02T13:26:08.732Z,100299.06
2023-04-02T13:28:35.495Z,100292.28
2023-04-02T13:31:02.353Z,100292.22
2023-04-02T13:33:29.197Z,100298.13
2023-04-02T13:35:55.952Z,100305.72
2023-04-02T13:38:22.727Z,100318.31
2023-04-02T13:40:49.442Z,100306.50
2023-04-02T13:43:20.280Z,100318.31
2023-04-02T13:45:54.266Z,100314.94
2023-04-02T13:48:24.547Z,100324.19
2023-04-02T13:50:52.801Z,100326.69
2023-04-02T13:53:31.717Z,100321.63
2023-04-02T13:55:58.421Z,100325.88
2023-04-02T13:58:25.571Z,100323.34
2023-04-02T14:00:52.500Z,100329.22
2023-04-02T14:03:23.265Z,100326.69
2023-04-02T14:06:08.468Z,100344.38
2023-04-02T14:08:55.821Z,100349.44
2023-04-02T14:11:54.751Z,100354.53
2023-04-02T14:14:37.701Z,100357.03
2023-04-02T14:17:29.764Z,100367.13
2023-04-02T14:20:15.390Z,100368.75
2023-04-02T14:23:10.943Z,100378.06
2023-04-02T14:25:52.365Z,100376.38
2023-04-02T14:28:22.132Z,100378.13
2023-04-02T14:31:11.288Z,100384.94
2023-04-02T14:33:49.167Z,100382.41
2023-04-02T14:36:31.036Z,100392.56
2023-04-02T14:39:17.314Z,100391.72
2023-04-02T14:41:57.417Z,100390.03
2023-04-02T14:44:30.592Z,100388.31
2023-04-02T14:47:21.699Z,100395.91
2023-04-02T14:49:56.228Z,100395.09
2023-04-02T14:52:28.513Z,100391.72
2023-04-02T14:55:04.668Z,100390.91
2023-04-02T14:57:38.805Z,100397.63
2023-04-02T15:00:39.863Z,100394.25
2023-04-02T15:03:23.529Z,100399.25
2023-04-02T15:06:03.411Z,100405.16
2023-04-02T15:08:52.386Z,100397.50
2023-04-02T15:11:37.347Z,100415.22
2023-04-02T15:14:28.623Z,100410.97
2023-04-02T15:16:55.488Z,100415.19
2023-04-02T15:19:22.256Z,100419.41
2023-04-02T15:22:10.501Z,100425.28
2023-04-02T15:25:03.100Z,100432.78
2023-04-02T15:27:48.286Z,100427.69
2023-04-02T15:30:25.461Z,100439.31
2023-04-02T15:32:58.745Z,100430.75
2023-04-02T15:35:52.989Z,100427.31
2023-04-02T15:38:32.891Z,100443.19
2023-04-02T15:41:35.619Z,100447.31
2023-04-02T15:44:17.009Z,100451.47
2023-04-02T15:46:47.685Z,100459.00
2023-04-02T15:49:41.430Z,100462.28
2023-04-02T15:52:20.295Z,100468.97
2023-04-02T15:55:24.352Z,100469.75
2023-04-02T15:58:29.135Z,100479.81
2023-04-02T16:01:11.708Z,100481.50
2023-04-02T16:04:14.450Z,100479.84
2023-04-02T16:07:15.331Z,100483.25
2023-04-02T16:09:59.823Z,100491.66
2023-04-02T16:12:29.377Z,100489.13
2023-04-02T16:15:10.906Z,100492.50
2023-04-02T16:17:50.780Z,100499.22
2023-04-02T16:20:31.647Z,100499.25
2023-04-02T16:23:11.322Z,100498.41
2023-04-02T16:26:19.385Z,100502.53
2023-04-02T16:29:24.127Z,100510.88
2023-04-02T16:32:35.945Z,100520.91
2023-04-02T16:35:48.300Z,100514.09
2023-04-02T16:38:41.043Z,100535.03
2023-04-02T16:41:35.741Z,100530.84
2023-04-02T16:44:24.336Z,100542.63
2023-04-02T16:47:27.882Z,100543.47
2023-04-02T16:50:13.905Z,100546.84
2023-04-02T16:53:17.512Z,100550.25
2023-04-02T16:56:02.206Z,100542.63
2023-04-02T16:58:37.735Z,100547.75
2023-04-02T17:01:34.873Z,100558.75
2023-04-02T17:04:14.421Z,100560.44
2023-04-02T17:06:52.807Z,100564.72
2023-04-02T17:09:46.198Z,100571.50
2023-04-02T17:12:32.048Z,100573.09
2023-04-02T17:15:04.603Z,100576.50
2023-04-02T17:17:32.514Z,100581.63
2023-04-02T17:20:01.212Z,100583.34
2023-04-02T17:22:31.391Z,100586.69
2023-04-02T17:25:03.054Z,100587.53
2023-04-02T17:27:56.901Z,100599.34
2023-04-02T17:30:47.717Z,100598.44
2023-04-02T17:33:17.896Z,100610.28
2023-04-02T17:35:59.471Z,100611.19
2023-04-02T17:38:59.741Z,100615.47
2023-04-02T17:41:51.234Z,100614.66
2023-04-02T17:44:51.923Z,100616.34
2023-04-02T17:48:04.232Z,100618.88
2023-04-02T17:51:17.634Z,100630.72
2023-04-02T17:54:10.409Z,100624.78
2023-04-02T17:56:50.889Z,100626.53
2023-04-02T17:59:49.961Z,100634.16
2023-04-02T18:02:49.948Z,100635.06
2023-04-02T18:05:42.285Z,100641.81
2023-04-02T18:08:24.015Z,100645.16
2023-04-02T18:11:36.784Z,100651.03
2023-04-02T18:14:30.369Z,100660.22
2023-04-02T18:17:18.553Z,100657.66
2023-04-02T18:20:31.235Z,100659.34
2023-04-02T18:23:32.227Z,100664.31
2023-04-02T18:26:31.669Z,100668.53
2023-04-02T18:29:46.083Z,100672.97
2023-04-02T18:32:49.121Z,100677.75
2023-04-02T18:35:34.504Z,100686.69
2023-04-02T18:38:36.134Z,100687.34
2023-04-02T18:41:30.451Z,100682.66
2023-04-02T18:44:28.531Z,100689.41
2023-04-02T18:47:05.955Z,100700.16
2023-04-02T18:49:48.353Z,100700.09
2023-04-02T18:52:17.975Z,100703.59
2023-04-02T18:55:05.685Z,100704.53
2023-04-02T18:57:38.819Z,100705.16
2023-04-02T19:00:37.978Z,100715.09
2023-04-02T19:03:31.547Z,100726.69
2023-04-02T19:06:38.225Z,100732.44
2023-04-02T19:09:31.853Z,100731.47
2023-04-02T19:11:58.587Z,100736.44
2023-04-02T19:14:25.427Z,100739.81
2023-04-02T19:17:27.958Z,100741.53
2023-04-02T19:20:16.330Z,100748.22
2023-04-02T19:23:10.894Z,100746.53
2023-04-02T19:26:05.850Z,100750.78
2023-04-02T19:28:52.822Z,100757.56
2023-04-02T19:31:45.430Z,100765.22
2023-04-02T19:34:26.835Z,100766.84
2023-04-02T19:36:59.321Z,100770.22
2023-04-02T19:39:40.539Z,100765.22
2023-04-02T19:42:39.429Z,100764.31
2023-04-02T19:45:25.263Z,100767.59
2023-04-02T19:47:52.249Z,100765.09
2023-04-02T19:50:19.192Z,100770.97
2023-04-02T19:52:45.954Z,100777.78
2023-04-02T19:55:13.860Z,100770.19
2023-04-02T19:57:40.829Z,100781.13
2023-04-02T20:00:12.047Z,100785.31
2023-04-02T20:02:38.886Z,100779.44
2023-04-02T20:05:06.521Z,100781.06
2023-04-02T20:07:33.276Z,100772.56
2023-04-02T20:10:00.052Z,100781.03
2023-04-02T20:12:26.879Z,100784.38
2023-04-02T20:14:53.601Z,100782.63
2023-04-02T20:17:20.551Z,100785.16
2023-04-02T20:19:47.275Z,100783.38
2023-04-02T20:22:13.988Z,100780.69
2023-04-02T20:24:42.505Z,100787.41
2023-04-02T20:27:09.264Z,100787.28
2023-04-02T20:29:36.363Z,100794.81
2023-04-02T20:32:03.218Z,100807.34
2023-04-02T20:34:30.206Z,100801.38
2023-04-02T20:36:57.163Z,100799.59
2023-04-02T20:39:24.092Z,100805.41
2023-04-02T20:41:51.124Z,100803.69
2023-04-02T20:44:17.918Z,100805.31
2023-04-02T20:46:44.760Z,100812.03
2023-04-02T20:49:12.009Z,100812.78
2023-04-02T20:51:38.695Z,100811.09
2023-04-02T20:54:05.716Z,100818.59
2023-04-02T20:56:32.882Z,100821.13
2023-04-02T20:58:59.820Z,100815.16
2023-04-02T21:01:29.323Z,100818.47
2023-04-02T21:04:00.343Z,100816.69
2023-04-02T21:06:34.471Z,100819.94
2023-04-02T21:09:06.322Z,100818.06
2023-04-02T21:11:36.771Z,100825.50
2023-04-02T21:14:04.262Z,100832.09
2023-04-02T21:16:32.271Z,100824.31
2023-04-02T21:19:09.038Z,100835.91
2023-04-02T21:21:38.225Z,100830.69
2023-04-02T21:24:08.231Z,100833.13
2023-04-02T21:26:38.792Z,100841.44
2023-04-02T21:29:06.520Z,100846.38
2023-04-02T21:31:39.204Z,100852.91
2023-04-02T21:34:08.283Z,100858.69
2023-04-02T21:36:42.867Z,100864.44
2023-04-02T21:39:22.178Z,100861.78
2023-04-02T21:41:52.177Z,100867.50
2023-04-02T21:44:24.015Z,100874.13
2023-04-02T21:46:53.755Z,100868.81
2023-04-02T21:49:22.677Z,100869.50
2023-04-02T21:51:51.650Z,100867.66
2023-04-02T21:54:19.053Z,100869.19
2023-04-02T21:56:47.417Z,100867.34
2023-04-02T21:59:17.076Z,100869.72
2023-04-02T22:01:48.526Z,100877.13
2023-04-02T22:04:24.870Z,100858.50
2023-04-02T22:06:52.715Z,100871.81
2023-04-02T22:09:24.212Z,100874.22
2023-04-02T22:11:55.219Z,100870.72
2023-04-02T22:14:23.052Z,100884.91
2023-04-02T22:16:49.856Z,100880.59
2023-04-02T22:19:17.498Z,100877.13
2023-04-02T22:21:44.773Z,100883.66
2023-04-02T22:24:16.322Z,100872.53
2023-04-02T22:26:44.209Z,100879.09
2023-04-02T22:29:11.430Z,100883.06
2023-04-02T22:31:38.320Z,100887.00
2023-04-02T22:34:06.512Z,100885.19
2023-04-02T22:36:34.222Z,100884.19
2023-04-02T22:39:05.243Z,100890.72
2023-04-02T22:41:32.768Z,100884.72
2023-04-02T22:44:01.208Z,100882.81
2023-04-02T22:46:29.184Z,100893.63
2023-04-02T22:48:56.382Z,100888.50
2023-04-02T22:51:25.036Z,100881.72
2023-04-02T22:53:55.193Z,100890.81
2023-04-02T22:56:27.491Z,100899.97
2023-04-02T22:58:54.415Z,100898.25
2023-04-02T23:01:29.170Z,100905.84
2023-04-02T23:03:56.290Z,100899.88
2023-04-02T23:06:24.427Z,100910.84
2023-04-02T23:08:52.167Z,100909.91
2023-04-02T23:11:28.194Z,100902.22
2023-04-02T23:13:57.663Z,100911.34
2023-04-02T23:16:27.825Z,100912.97
2023-04-02T23:18:56.052Z,100906.97
2023-04-02T23:21:23.934Z,100905.16
2023-04-02T23:23:51.387Z,100906.75
2023-04-02T23:26:23.132Z,100910.00
2023-04-02T23:28:51.012Z,100908.19
2023-04-02T23:31:22.076Z,100908.81
2023-04-02T23:33:50.113Z,100912.09
2023-04-02T23:36:25.667Z,100912.03
2023-04-02T23:38:55.653Z,100908.59
2023-04-02T23:41:27.013Z,100916.13
2023-04-02T23:43:56.136Z,100911.94
2023-04-02T23:46:23.867Z,100912.78
2023-04-02T23:48:52.056Z,100911.09
2023-04-02T23:51:19.006Z,100912.78
2023-04-02T23:53:47.088Z,100911.09
2023-04-02T23:56:13.819Z,100910.25
2023-04-02T23:58:40.559Z,100909.38
